Time;durP1;ratioP1;P1;durP2;ratioP2;P2;SDS_P1;SDS_P2;PMS_P1;PMS_P2;Temp;Humidity;BMP_temperature;BMP_pressure;BME280_temperature;BME280_humidity;BME280_pressure;Samples;Min_cycle;Max_cycle;Signal;HPM_P1;HPM_P2
2021/07/13 00:02:06;;;;;;;15.50;5.93;;;;;;;18.74;74.85;99880.14;125683;1093;22769;-63
2021/07/13 00:04:40;;;;;;;12.55;5.90;;;;;;;18.72;75.23;99885.58;125739;1093;22784;-63
2021/07/13 00:07:11;;;;;;;10.90;5.23;;;;;;;18.66;74.95;99884.92;125838;1093;22818;-63
2021/07/13 00:09:43;;;;;;;12.17;5.97;;;;;;;18.62;75.36;99883.73;125778;1093;22908;-63
2021/07/13 00:12:14;;;;;;;13.20;4.83;;;;;;;18.56;75.37;99878.16;125690;1093;22781;-63
2021/07/13 00:14:46;;;;;;;18.03;5.65;;;;;;;18.51;75.28;99882.64;125712;1093;22985;-63
2021/07/13 00:17:21;;;;;;;14.65;5.03;;;;;;;18.49;75.49;99873.17;125711;1093;26328;-63
2021/07/13 00:19:52;;;;;;;13.33;5.30;;;;;;;18.47;75.55;99867.30;125712;1093;22811;-63
2021/07/13 00:22:23;;;;;;;12.98;5.65;;;;;;;18.46;75.53;99863.70;125684;1092;26223;-64
2021/07/13 00:24:55;;;;;;;12.00;4.93;;;;;;;18.45;75.54;99856.55;125662;1093;26207;-64
2021/07/13 00:27:26;;;;;;;13.40;6.07;;;;;;;18.43;75.40;99856.33;125593;1093;22813;-64
2021/07/13 00:29:58;;;;;;;13.03;5.58;;;;;;;18.40;75.31;99854.54;125835;1093;22838;-63
2021/07/13 00:32:29;;;;;;;14.95;5.40;;;;;;;18.36;75.70;99850.51;125752;1093;22760;-63
2021/07/13 00:35:01;;;;;;;13.23;5.73;;;;;;;18.34;75.84;99851.06;125728;1093;22781;-63
2021/07/13 00:37:33;;;;;;;13.57;5.47;;;;;;;18.33;75.79;99849.52;125750;1092;25839;-64
2021/07/13 00:40:07;;;;;;;12.40;4.77;;;;;;;18.30;75.65;99847.80;125907;1093;26692;-63
2021/07/13 00:42:39;;;;;;;16.00;5.23;;;;;;;18.26;75.55;99850.19;125915;1093;22778;-63
2021/07/13 00:45:11;;;;;;;12.50;5.47;;;;;;;18.26;75.90;99841.70;125755;1093;22766;-63
2021/07/13 00:47:48;;;;;;;15.80;5.87;;;;;;;18.24;76.15;99837.90;125737;1093;25839;-63
2021/07/13 00:50:23;;;;;;;14.83;6.20;;;;;;;18.23;76.67;99839.22;125817;1093;26499;-63
2021/07/13 00:52:57;;;;;;;13.10;6.00;;;;;;;18.22;76.70;99834.85;125805;1093;22793;-64
2021/07/13 00:55:32;;;;;;;14.10;6.00;;;;;;;18.21;76.36;99839.73;126107;1092;26678;-64
2021/07/13 00:58:04;;;;;;;16.33;6.43;;;;;;;18.19;76.52;99845.17;125825;1093;22771;-64
2021/07/13 01:00:36;;;;;;;12.97;5.83;;;;;;;18.15;76.13;99846.78;125761;1093;27090;-63
2021/07/13 01:03:09;;;;;;;13.90;5.95;;;;;;;18.10;76.42;99851.25;125744;1093;24483;-63
2021/07/13 01:05:45;;;;;;;13.43;5.50;;;;;;;18.05;76.28;99849.28;126023;1093;28307;-63
2021/07/13 01:08:29;;;;;;;14.18;5.28;;;;;;;18.00;76.13;99844.47;125730;1093;22742;-63
2021/07/13 01:11:09;;;;;;;14.25;6.40;;;;;;;17.97;76.56;99848.39;125821;1093;22792;-63
2021/07/13 01:13:40;;;;;;;;;;;;;;;17.95;76.26;99861.52;125770;1093;22760;-63
2021/07/13 01:16:18;;;;;;;12.95;5.60;;;;;;;17.89;76.61;99853.16;125771;1093;23042;-63
2021/07/13 01:18:55;;;;;;;17.20;8.67;;;;;;;17.84;76.51;99847.58;125802;1093;22772;-63
2021/07/13 01:21:38;;;;;;;14.00;6.33;;;;;;;17.80;76.48;99847.91;125772;1093;22827;-63
2021/07/13 01:24:44;;;;;;;13.40;5.40;;;;;;;17.77;76.56;99852.56;125853;1093;22781;-63
2021/07/13 01:27:39;;;;;;;14.90;6.35;;;;;;;17.73;76.75;99845.73;125691;1093;27179;-63
2021/07/13 01:30:16;;;;;;;19.08;6.33;;;;;;;17.69;76.76;99850.93;125698;1093;22781;-63
2021/07/13 01:32:58;;;;;;;13.70;5.77;;;;;;;17.67;76.64;99842.98;125816;1093;22754;-63
2021/07/13 01:35:35;;;;;;;13.30;6.77;;;;;;;17.62;77.02;99835.38;125812;1092;22927;-63
2021/07/13 01:38:09;;;;;;;14.20;5.80;;;;;;;17.59;76.95;99839.27;125796;1093;22761;-64
2021/07/13 01:40:43;;;;;;;14.60;6.30;;;;;;;17.61;76.82;99842.30;125774;1093;22784;-63
2021/07/13 01:43:16;;;;;;;11.33;5.70;;;;;;;17.59;76.96;99838.49;125859;1093;22914;-63
2021/07/13 01:45:49;;;;;;;16.13;5.77;;;;;;;17.55;76.78;99840.87;125772;1093;22751;-63
2021/07/13 01:48:21;;;;;;;15.10;6.17;;;;;;;17.49;76.73;99835.31;125746;1093;22778;-63
2021/07/13 01:50:58;;;;;;;12.27;5.37;;;;;;;17.47;76.94;99831.47;125910;1093;22759;-63
2021/07/13 01:53:31;;;;;;;14.35;5.80;;;;;;;17.44;77.14;99835.38;125765;1093;22771;-63
2021/07/13 01:56:03;;;;;;;16.53;6.03;;;;;;;17.42;76.85;99832.34;125839;1093;26255;-64
2021/07/13 01:58:40;;;;;;;14.55;5.30;;;;;;;17.38;76.76;99832.63;125817;1093;28486;-63
2021/07/13 02:01:18;;;;;;;13.10;5.75;;;;;;;17.36;76.90;99834.48;125655;1093;22781;-63
2021/07/13 02:03:53;;;;;;;15.67;5.33;;;;;;;17.31;77.37;99840.95;125608;1093;25370;-63
2021/07/13 02:06:27;;;;;;;16.47;5.63;;;;;;;17.28;77.29;99856.12;125737;1093;22754;-63
2021/07/13 02:09:01;;;;;;;14.70;6.20;;;;;;;17.25;77.00;99852.33;125809;1093;22915;-63
2021/07/13 02:11:33;;;;;;;13.20;6.10;;;;;;;17.23;77.47;99852.11;125883;1093;22759;-63
2021/07/13 02:14:05;;;;;;;14.00;4.90;;;;;;;17.17;77.48;99845.78;125827;1093;22912;-63
2021/07/13 02:16:36;;;;;;;15.17;5.53;;;;;;;17.12;77.19;99843.79;125749;1093;22844;-62
2021/07/13 02:19:09;;;;;;;13.35;6.10;;;;;;;17.08;77.56;99839.74;125750;1093;22781;-63
2021/07/13 02:21:41;;;;;;;15.67;6.13;;;;;;;17.03;77.70;99840.59;125851;1093;28379;-63
2021/07/13 02:24:12;;;;;;;11.30;4.75;;;;;;;16.99;77.68;99854.98;125868;1093;25617;-63
2021/07/13 02:26:48;;;;;;;12.00;5.17;;;;;;;16.96;77.50;99842.73;125674;1092;22831;-62
2021/07/13 02:29:26;;;;;;;13.90;5.50;;;;;;;16.97;77.89;99849.11;125698;1093;22761;-62
2021/07/13 02:32:01;;;;;;;14.45;5.45;;;;;;;16.98;77.69;99845.78;125822;1093;22781;-62
2021/07/13 02:34:37;;;;;;;14.55;5.55;;;;;;;16.95;77.71;99852.47;125877;1093;22781;-60
2021/07/13 02:37:12;;;;;;;20.70;5.80;;;;;;;16.92;77.79;99838.69;125588;1092;22790;-61
2021/07/13 02:39:46;;;;;;;13.90;5.50;;;;;;;16.90;77.86;99838.45;125880;1091;26213;-61
2021/07/13 02:42:19;;;;;;;20.05;7.70;;;;;;;16.84;78.07;99840.58;125774;1093;26066;-61
2021/07/13 02:44:54;;;;;;;17.90;7.30;;;;;;;16.84;78.19;99843.41;125688;1092;26247;-61
2021/07/13 02:47:27;;;;;;;12.00;5.35;;;;;;;16.81;77.90;99839.59;126347;1091;22620;-60
2021/07/13 02:50:00;;;;;;;16.70;6.10;;;;;;;16.78;77.90;99835.00;125931;1093;22770;-60
2021/07/13 02:52:33;;;;;;;15.13;6.23;;;;;;;16.76;78.25;99829.13;126061;1093;22797;-62
2021/07/13 02:55:09;;;;;;;14.75;6.30;;;;;;;16.73;78.14;99823.80;125941;1093;22800;-59
2021/07/13 02:57:43;;;;;;;14.85;5.90;;;;;;;16.73;78.20;99833.03;126083;1093;26270;-59
2021/07/13 03:00:20;;;;;;;13.55;5.65;;;;;;;16.74;78.25;99822.49;125762;1096;22803;-61
2021/07/13 03:02:55;;;;;;;21.80;5.50;;;;;;;16.72;78.61;99834.30;125867;1093;26277;-60
2021/07/13 03:05:29;;;;;;;14.17;6.50;;;;;;;16.69;78.21;99829.75;125911;1093;22781;-61
2021/07/13 03:08:02;;;;;;;13.30;4.85;;;;;;;16.70;78.33;99827.67;125856;1096;23539;-61
2021/07/13 03:25:01;;;;;;;18.70;5.10;;;;;;;16.57;78.87;99834.00;125815;1093;22757;-61
2021/07/13 03:27:34;;;;;;;16.85;5.70;;;;;;;16.55;78.62;99839.38;125825;1093;22743;-60
2021/07/13 03:30:08;;;;;;;19.75;5.25;;;;;;;16.57;79.07;99834.00;126426;1093;22778;-65
2021/07/13 03:32:41;;;;;;;18.70;5.13;;;;;;;16.54;78.54;99823.77;125767;1093;24174;-64
2021/07/13 03:35:16;;;;;;;17.27;5.73;;;;;;;16.53;78.67;99825.05;125706;1093;22815;-65
2021/07/13 03:37:48;;;;;;;14.15;5.15;;;;;;;16.51;79.15;99824.08;125713;1093;22770;-64
2021/07/13 03:40:22;;;;;;;13.25;5.55;;;;;;;16.48;79.06;99822.28;125977;1092;22774;-64
2021/07/13 03:42:55;;;;;;;12.55;4.50;;;;;;;16.47;79.20;99826.41;125853;1093;26053;-65
2021/07/13 03:45:29;;;;;;;16.10;4.95;;;;;;;16.45;79.33;99826.91;125899;1093;22758;-64
2021/07/13 03:48:01;;;;;;;14.60;5.37;;;;;;;16.44;79.04;99825.41;125811;1093;22757;-65
2021/07/13 03:50:37;;;;;;;10.93;4.83;;;;;;;16.45;79.15;99817.72;125645;1093;22758;-64
2021/07/13 03:53:08;;;;;;;21.15;4.95;;;;;;;16.46;79.74;99822.81;125704;1093;22831;-65
2021/07/13 03:55:40;;;;;;;17.65;5.65;;;;;;;16.54;79.88;99820.95;125738;1093;22774;-64
2021/07/13 03:58:12;;;;;;;18.30;5.35;;;;;;;16.59;80.04;99820.14;125632;1093;26736;-65
2021/07/13 04:00:44;;;;;;;15.75;5.60;;;;;;;16.66;79.83;99824.39;125698;1093;22778;-65
2021/07/13 04:03:15;;;;;;;14.80;5.50;;;;;;;16.72;80.18;99822.27;125674;1093;27178;-65
2021/07/13 04:05:47;;;;;;;19.50;5.37;;;;;;;16.77;80.42;99819.39;125728;1093;22755;-65
2021/07/13 04:08:21;;;;;;;16.70;6.20;;;;;;;16.82;79.90;99821.36;125976;1093;22783;-64
2021/07/13 04:10:52;;;;;;;12.70;4.80;;;;;;;16.84;79.88;99818.03;125665;1093;27147;-64
2021/07/13 04:13:24;;;;;;;16.17;5.90;;;;;;;16.86;80.24;99810.54;125643;1093;22781;-65
2021/07/13 04:15:55;;;;;;;19.20;5.90;;;;;;;16.91;80.54;99809.72;125576;1093;24417;-66
2021/07/13 04:18:27;;;;;;;18.15;5.90;;;;;;;16.98;80.20;99811.94;126361;1093;27470;-65
2021/07/13 04:20:59;;;;;;;15.65;5.50;;;;;;;17.03;80.28;99823.67;125768;1093;22774;-65
2021/07/13 04:23:31;;;;;;;19.65;6.65;;;;;;;17.06;80.49;99829.00;125663;1093;25941;-64
2021/07/13 04:26:03;;;;;;;18.50;5.10;;;;;;;17.10;80.68;99818.17;125838;1093;22754;-64
2021/07/13 04:28:35;;;;;;;15.20;6.70;;;;;;;17.15;80.36;99828.63;125704;1093;24417;-63
2021/07/13 04:31:06;;;;;;;20.90;6.90;;;;;;;17.23;80.76;99823.89;125642;1093;25848;-62
2021/07/13 04:33:37;;;;;;;17.95;6.15;;;;;;;17.32;80.63;99817.10;125644;1093;26490;-62
2021/07/13 04:36:09;;;;;;;17.05;6.45;;;;;;;17.38;80.51;99812.13;125683;1093;22846;-61
2021/07/13 04:38:41;;;;;;;12.85;5.50;;;;;;;17.48;80.72;99816.84;125695;1092;22831;-62
2021/07/13 04:41:13;;;;;;;18.10;6.90;;;;;;;17.58;80.52;99822.87;125762;1093;22762;-63
2021/07/13 04:43:44;;;;;;;16.00;6.00;;;;;;;17.62;80.54;99823.31;125577;1093;22851;-62
2021/07/13 04:46:16;;;;;;;16.00;6.90;;;;;;;17.70;80.93;99824.20;125656;1093;26498;-62
2021/07/13 04:48:47;;;;;;;16.05;7.05;;;;;;;17.76;80.57;99817.17;125615;1092;22831;-63
2021/07/13 04:51:18;;;;;;;16.30;7.55;;;;;;;17.83;80.69;99815.78;125757;1092;22748;-63
2021/07/13 04:53:50;;;;;;;17.60;8.00;;;;;;;17.90;80.75;99823.59;125618;1093;22841;-63
2021/07/13 04:56:21;;;;;;;19.80;7.00;;;;;;;17.98;80.72;99835.04;125341;1093;24467;-62
2021/07/13 04:58:53;;;;;;;18.00;7.25;;;;;;;18.07;80.79;99838.20;125458;1093;22767;-62
2021/07/13 05:01:24;;;;;;;17.90;6.30;;;;;;;18.14;80.59;99831.92;125595;1093;23299;-63
2021/07/13 05:03:56;;;;;;;16.55;6.75;;;;;;;18.26;80.63;99823.98;125657;1092;25762;-63
2021/07/13 05:06:27;;;;;;;16.35;6.15;;;;;;;18.34;80.61;99816.38;125587;1092;22755;-62
2021/07/13 05:08:59;;;;;;;18.95;7.05;;;;;;;18.45;80.16;99821.86;125736;1093;22877;-62
2021/07/13 05:11:33;;;;;;;15.57;6.80;;;;;;;18.58;80.29;99826.75;125672;1093;22853;-62
2021/07/13 05:14:07;;;;;;;17.65;6.65;;;;;;;18.67;80.11;99829.12;125648;1091;22765;-63
2021/07/13 05:16:38;;;;;;;16.60;6.73;;;;;;;18.76;80.03;99823.80;125718;1093;22912;-63
2021/07/13 05:19:12;;;;;;;16.03;6.33;;;;;;;18.85;79.96;99823.33;125734;1093;22838;-69
2021/07/13 05:21:49;;;;;;;17.57;6.87;;;;;;;18.95;79.95;99823.66;125769;1093;26213;-63
2021/07/13 05:24:20;;;;;;;14.73;6.43;;;;;;;19.04;79.47;99826.01;125667;1092;27182;-63
2021/07/13 05:26:52;;;;;;;21.57;6.40;;;;;;;19.12;79.57;99826.86;125678;1093;22824;-63
2021/07/13 05:29:23;;;;;;;15.98;7.58;;;;;;;19.17;79.17;99831.64;125767;1092;26213;-63
2021/07/13 05:31:55;;;;;;;23.80;7.43;;;;;;;19.25;80.05;99819.11;125663;1092;22802;-64
2021/07/13 05:34:26;;;;;;;16.25;6.98;;;;;;;19.31;79.32;99824.63;125711;1092;22760;-63
2021/07/13 05:36:57;;;;;;;22.77;9.47;;;;;;;19.37;79.35;99818.89;125695;1093;22781;-63
2021/07/13 05:39:29;;;;;;;16.47;6.87;;;;;;;19.43;79.47;99811.77;125607;1092;24421;-63
2021/07/13 05:42:00;;;;;;;18.23;8.20;;;;;;;19.52;79.18;99804.87;125880;1093;22774;-63
2021/07/13 05:44:31;;;;;;;25.75;8.28;;;;;;;19.57;79.31;99810.41;125956;1093;26054;-63
2021/07/13 05:47:03;;;;;;;17.78;7.95;;;;;;;19.61;78.88;99802.33;125693;1093;22774;-63
2021/07/13 05:49:34;;;;;;;19.00;7.75;;;;;;;19.66;79.40;99809.91;125790;1093;22834;-64
2021/07/13 05:52:07;;;;;;;15.73;7.83;;;;;;;19.74;79.25;99796.58;125598;1093;25842;-63
2021/07/13 05:54:38;;;;;;;17.85;8.45;;;;;;;19.84;78.83;99788.38;125674;1092;22754;-63
2021/07/13 05:57:10;;;;;;;19.08;8.80;;;;;;;19.90;78.75;99789.75;125773;1097;23292;-64
2021/07/13 05:59:41;;;;;;;20.00;9.08;;;;;;;19.99;78.66;99794.14;125761;1093;22915;-64
2021/07/13 06:02:13;;;;;;;17.58;8.75;;;;;;;20.07;79.02;99792.14;125747;1092;22755;-64
2021/07/13 06:04:44;;;;;;;17.57;8.80;;;;;;;20.10;78.65;99791.78;125667;1093;22758;-64
2021/07/13 06:07:15;;;;;;;18.18;7.63;;;;;;;20.21;78.82;99802.09;125649;1093;24420;-64
2021/07/13 06:09:47;;;;;;;17.35;7.80;;;;;;;20.34;78.82;99795.56;125679;1093;22781;-64
2021/07/13 06:12:19;;;;;;;18.03;8.13;;;;;;;20.42;78.43;99799.94;125686;1093;22770;-64
2021/07/13 06:14:50;;;;;;;18.77;7.93;;;;;;;20.51;78.05;99813.61;125717;1093;22789;-64
2021/07/13 06:17:21;;;;;;;20.30;7.83;;;;;;;20.57;77.89;99807.77;125545;1093;22764;-64
2021/07/13 06:19:53;;;;;;;18.03;8.60;;;;;;;20.64;77.90;99799.33;125620;1093;27178;-64
2021/07/13 06:22:25;;;;;;;15.60;8.10;;;;;;;20.69;77.85;99792.71;125830;1093;27151;-64
2021/07/13 06:24:57;;;;;;;15.83;7.13;;;;;;;20.79;78.18;99793.73;125695;1093;24414;-64
2021/07/13 06:27:28;;;;;;;18.60;8.08;;;;;;;20.89;77.59;99791.11;125844;1092;22754;-64
2021/07/13 06:30:00;;;;;;;20.05;8.35;;;;;;;20.93;77.33;99786.59;125708;1093;22755;-64
2021/07/13 06:32:31;;;;;;;15.70;7.35;;;;;;;21.00;77.55;99790.78;125723;1092;22941;-64
2021/07/13 06:35:03;;;;;;;18.98;8.60;;;;;;;21.03;76.44;99774.72;125692;1092;22817;-63
2021/07/13 06:37:35;;;;;;;18.18;7.48;;;;;;;21.11;76.77;99759.23;125809;1093;22912;-64
2021/07/13 06:40:08;;;;;;;17.50;7.50;;;;;;;21.23;76.71;99760.39;125675;1093;22777;-64
2021/07/13 06:42:39;;;;;;;15.00;7.87;;;;;;;21.34;75.79;99762.88;125780;1093;22835;-65
2021/07/13 06:45:12;;;;;;;20.95;7.95;;;;;;;21.36;75.97;99754.55;125687;1093;27290;-64
2021/07/13 06:47:44;;;;;;;21.70;8.63;;;;;;;21.41;76.04;99759.31;125765;1093;22754;-64
2021/07/13 06:50:16;;;;;;;15.27;7.47;;;;;;;21.53;75.99;99759.69;125584;1093;23206;-64
2021/07/13 06:52:47;;;;;;;17.28;7.50;;;;;;;21.58;75.89;99762.33;125740;1093;22754;-64
2021/07/13 06:55:19;;;;;;;16.40;7.53;;;;;;;21.65;75.61;99757.98;125668;1093;24456;-64
2021/07/13 06:57:50;;;;;;;17.00;8.13;;;;;;;21.73;75.75;99761.58;125751;1093;25849;-64
2021/07/13 07:00:22;;;;;;;14.83;6.85;;;;;;;21.81;75.23;99756.65;125797;1092;22781;-64
2021/07/13 07:02:53;;;;;;;19.73;7.13;;;;;;;21.87;75.28;99757.24;125727;1093;22756;-64
2021/07/13 07:05:24;;;;;;;17.17;7.43;;;;;;;21.94;74.90;99750.05;125575;1093;22800;-64
2021/07/13 07:07:56;;;;;;;21.00;7.65;;;;;;;22.02;75.01;99747.95;125687;1093;24420;-64
2021/07/13 07:10:27;;;;;;;16.65;6.40;;;;;;;22.11;75.12;99744.53;125718;1093;26257;-64
2021/07/13 07:12:58;;;;;;;17.37;7.03;;;;;;;22.19;74.61;99748.12;125712;1093;24356;-64
2021/07/13 07:15:30;;;;;;;19.48;7.65;;;;;;;22.29;74.48;99746.19;125651;1093;26180;-64
2021/07/13 07:18:01;;;;;;;19.05;6.90;;;;;;;22.34;74.47;99745.25;125761;1093;22754;-64
2021/07/13 07:20:34;;;;;;;18.90;7.35;;;;;;;22.44;74.72;99744.08;125706;1092;22757;-64
2021/07/13 07:23:06;;;;;;;16.00;6.80;;;;;;;22.49;74.39;99753.73;125694;1093;22754;-64
2021/07/13 07:25:38;;;;;;;14.53;6.13;;;;;;;22.55;73.95;99740.80;125722;1092;22848;-64
2021/07/13 07:28:12;;;;;;;14.85;5.90;;;;;;;22.61;74.13;99742.72;125761;1093;22751;-64
2021/07/13 07:30:43;;;;;;;17.13;7.10;;;;;;;22.66;73.93;99748.19;125825;1093;22807;-64
2021/07/13 07:33:15;;;;;;;13.63;6.20;;;;;;;22.76;73.61;99748.36;125680;1093;22754;-64
2021/07/13 07:35:46;;;;;;;16.20;6.63;;;;;;;22.82;73.58;99746.81;125766;1093;26229;-64
2021/07/13 07:38:18;;;;;;;15.15;6.63;;;;;;;22.92;73.57;99746.95;125620;1093;22775;-64
2021/07/13 07:40:50;;;;;;;13.83;6.95;;;;;;;22.96;72.73;99741.61;125627;1092;22807;-64
2021/07/13 07:43:21;;;;;;;12.80;5.88;;;;;;;23.02;72.61;99742.14;125762;1093;22784;-64
2021/07/13 07:45:52;;;;;;;13.93;6.63;;;;;;;23.09;72.11;99742.09;125820;1092;22770;-64
2021/07/13 07:48:24;;;;;;;14.13;6.03;;;;;;;23.14;72.46;99737.52;125648;1093;22774;-65
2021/07/13 07:50:58;;;;;;;15.67;6.43;;;;;;;23.23;73.10;99743.36;125691;1093;22778;-64
2021/07/13 07:53:30;;;;;;;20.83;6.80;;;;;;;23.30;72.36;99728.30;125959;1093;22854;-64
2021/07/13 07:56:02;;;;;;;14.95;6.53;;;;;;;23.38;71.81;99731.13;125692;1093;24191;-64
2021/07/13 07:58:33;;;;;;;14.55;5.43;;;;;;;23.40;71.05;99727.70;125648;1093;22758;-64
2021/07/13 08:01:05;;;;;;;14.18;6.03;;;;;;;23.39;71.13;99721.23;125689;1093;26213;-64
2021/07/13 08:03:36;;;;;;;15.48;6.28;;;;;;;23.43;71.04;99724.44;125705;1093;22775;-64
2021/07/13 08:06:07;;;;;;;13.58;6.13;;;;;;;23.49;70.48;99736.35;125759;1093;22795;-65
2021/07/13 08:08:39;;;;;;;14.38;6.10;;;;;;;23.53;70.85;99728.16;125768;1093;22736;-64
2021/07/13 08:11:11;;;;;;;15.08;6.33;;;;;;;23.62;70.80;99729.61;125973;1093;22834;-64
2021/07/13 08:13:42;;;;;;;13.20;6.60;;;;;;;23.67;70.80;99732.21;125636;1092;22755;-64
2021/07/13 08:16:13;;;;;;;15.55;6.10;;;;;;;23.77;71.42;99727.41;125689;1093;23467;-64
2021/07/13 08:18:45;;;;;;;12.07;6.33;;;;;;;23.89;70.64;99731.28;125715;1093;22789;-65
2021/07/13 08:21:19;;;;;;;12.05;5.68;;;;;;;23.95;69.82;99728.17;125838;1093;22706;-63
2021/07/13 08:23:51;;;;;;;15.85;6.08;;;;;;;23.95;69.73;99728.17;125691;1092;25842;-63
2021/07/13 08:26:23;;;;;;;12.95;5.95;;;;;;;24.00;69.78;99725.07;125686;1093;22757;-63
2021/07/13 08:28:55;;;;;;;17.98;7.40;;;;;;;24.08;69.63;99720.07;125732;1093;22781;-63
2021/07/13 08:31:27;;;;;;;13.33;6.13;;;;;;;24.17;69.43;99712.95;125709;1093;22784;-63
2021/07/13 08:33:58;;;;;;;15.28;6.63;;;;;;;24.26;69.26;99705.83;125699;1093;22742;-64
2021/07/13 08:36:29;;;;;;;13.45;5.98;;;;;;;24.29;68.63;99704.66;125625;1092;22753;-63
2021/07/13 08:39:01;;;;;;;11.03;5.78;;;;;;;24.37;68.87;99700.39;125719;1092;22781;-64
2021/07/13 08:41:34;;;;;;;13.70;6.48;;;;;;;24.46;69.21;99708.25;125703;1093;22757;-64
2021/07/13 08:44:06;;;;;;;13.75;6.38;;;;;;;24.51;67.87;99715.81;125712;1093;22803;-64
2021/07/13 08:46:40;;;;;;;15.38;6.10;;;;;;;24.55;67.84;99723.94;125921;1093;22782;-64
2021/07/13 08:49:13;;;;;;;10.73;6.15;;;;;;;24.64;68.23;99720.41;125803;1093;26229;-64
2021/07/13 08:51:45;;;;;;;13.55;6.18;;;;;;;24.73;68.46;99714.00;125706;1093;22863;-64
2021/07/13 08:54:16;;;;;;;13.40;5.60;;;;;;;24.86;68.52;99716.53;125684;1093;27182;-64
2021/07/13 08:56:47;;;;;;;15.35;6.23;;;;;;;24.98;68.22;99726.06;125900;1093;22881;-64
2021/07/13 08:59:19;;;;;;;11.25;5.80;;;;;;;25.06;67.89;99721.00;125676;1093;22748;-64
2021/07/13 09:01:50;;;;;;;14.68;6.50;;;;;;;25.16;67.69;99709.64;125817;1093;22860;-64
2021/07/13 09:04:32;;;;;;;13.78;5.98;;;;;;;25.21;66.98;99720.03;125688;1093;22775;-64
2021/07/13 09:07:08;;;;;;;16.08;5.73;;;;;;;25.25;66.65;99720.34;125716;1093;24175;-64
2021/07/13 09:09:44;;;;;;;11.53;5.40;;;;;;;25.31;67.07;99726.54;125840;1093;25816;-64
2021/07/13 09:12:21;;;;;;;11.95;5.55;;;;;;;25.40;66.39;99717.27;125664;1093;22755;-64
2021/07/13 09:14:57;;;;;;;13.15;5.58;;;;;;;25.43;66.35;99705.42;125820;1092;24487;-64
2021/07/13 09:17:40;;;;;;;13.35;5.43;;;;;;;25.51;66.33;99705.31;126002;1093;22839;-64
2021/07/13 09:20:21;;;;;;;18.20;6.40;;;;;;;25.56;66.12;99707.13;125787;1093;26691;-64
2021/07/13 09:22:59;;;;;;;14.33;6.33;;;;;;;25.59;65.23;99698.13;125608;1092;22754;-64
2021/07/13 09:25:34;;;;;;;12.60;5.48;;;;;;;25.64;65.41;99699.17;125601;1093;22757;-64
2021/07/13 09:28:13;;;;;;;12.58;5.80;;;;;;;25.71;65.62;99701.16;125621;1093;24451;-63
2021/07/13 09:30:44;;;;;;;;;;;;;;;25.81;65.23;99699.07;125832;1092;28241;-63
2021/07/13 09:33:22;;;;;;;10.15;4.98;;;;;;;25.86;65.38;99700.14;125798;1092;21496;-64
2021/07/13 09:36:11;;;;;;;13.88;5.85;;;;;;;25.96;65.17;99695.95;125755;1093;25842;-63
2021/07/13 09:38:54;;;;;;;9.70;4.93;;;;;;;26.05;64.57;99703.04;125794;1093;22739;-64
2021/07/13 09:41:30;;;;;;;12.10;5.40;;;;;;;26.13;64.58;99697.95;126145;1093;22781;-64
2021/07/13 09:44:04;;;;;;;11.35;5.35;;;;;;;26.21;64.40;99695.70;125685;1093;22784;-64
2021/07/13 09:46:38;;;;;;;11.33;5.73;;;;;;;26.29;64.42;99696.30;125783;1093;22806;-63
2021/07/13 09:49:19;;;;;;;11.83;5.95;;;;;;;26.37;63.85;99700.52;125714;1093;22775;-64
2021/07/13 09:51:58;;;;;;;10.80;5.15;;;;;;;26.41;64.01;99695.09;125785;1093;26226;-63
2021/07/13 09:54:46;;;;;;;10.50;4.70;;;;;;;26.52;63.76;99685.16;125872;1093;26096;-64
2021/07/13 09:57:20;;;;;;;13.00;5.25;;;;;;;26.60;63.12;99687.84;125729;1093;22777;-64
2021/07/13 09:59:55;;;;;;;12.63;5.50;;;;;;;26.67;63.16;99684.08;125773;1093;22778;-63
2021/07/13 10:02:27;;;;;;;11.23;5.43;;;;;;;26.72;62.75;99683.03;125687;1093;25823;-63
2021/07/13 10:04:59;;;;;;;11.30;4.63;;;;;;;26.76;62.35;99681.22;125792;1093;22756;-63
2021/07/13 10:07:32;;;;;;;14.20;5.23;;;;;;;26.80;61.62;99686.48;125733;1093;22754;-63
2021/07/13 10:10:05;;;;;;;11.03;5.28;;;;;;;26.83;61.55;99674.58;125780;1093;22909;-63
2021/07/13 10:12:37;;;;;;;10.10;4.58;;;;;;;26.88;61.28;99675.63;125732;1093;24436;-63
2021/07/13 10:15:11;;;;;;;13.48;4.60;;;;;;;26.94;61.03;99676.06;125754;1093;22781;-63
2021/07/13 10:17:45;;;;;;;10.73;5.00;;;;;;;26.98;61.22;99674.22;125708;1092;22767;-62
2021/07/13 10:20:17;;;;;;;11.53;4.17;;;;;;;27.03;60.76;99672.40;126309;1092;27465;-63
2021/07/13 10:22:51;;;;;;;8.78;3.95;;;;;;;27.07;60.22;99673.45;125676;1093;27175;-63
2021/07/13 10:25:34;;;;;;;10.00;3.60;;;;;;;27.12;60.34;99677.36;126141;1092;26239;-63
2021/07/13 10:28:07;;;;;;;10.65;3.93;;;;;;;27.18;59.76;99675.67;125726;1093;22823;-63
2021/07/13 10:30:43;;;;;;;11.68;3.70;;;;;;;27.23;59.71;99673.83;125743;1093;22795;-63
2021/07/13 10:33:38;;;;;;;9.37;4.27;;;;;;;27.29;59.79;99662.81;125702;1093;26229;-63
2021/07/13 10:36:32;;;;;;;7.93;3.93;;;;;;;27.36;59.37;99664.76;125787;1093;22755;-63
2021/07/13 10:39:29;;;;;;;10.20;4.65;;;;;;;27.42;59.18;99668.05;125820;1093;27147;-63
2021/07/13 10:42:03;;;;;;;9.90;4.58;;;;;;;27.46;58.62;99665.45;125801;1093;22915;-63
2021/07/13 10:44:46;;;;;;;9.50;4.95;;;;;;;27.51;58.73;99669.36;125671;1093;24452;-63
2021/07/13 10:47:31;;;;;;;10.17;4.80;;;;;;;27.55;58.53;99661.80;125799;1093;22781;-63
2021/07/13 10:50:40;;;;;;;8.58;4.38;;;;;;;27.60;58.91;99660.73;125739;1093;22785;-63
2021/07/13 10:53:17;;;;;;;9.48;4.53;;;;;;;27.68;58.03;99652.67;125764;1093;22770;-63
2021/07/13 10:56:03;;;;;;;8.23;4.47;;;;;;;27.75;57.96;99659.55;125943;1093;27672;-63
2021/07/13 10:58:54;;;;;;;10.43;4.78;;;;;;;27.80;58.16;99655.61;125738;1093;24469;-63
2021/07/13 11:01:32;;;;;;;10.50;4.45;;;;;;;27.85;57.68;99655.27;125891;1093;27182;-63
2021/07/13 11:04:09;;;;;;;8.60;4.13;;;;;;;27.91;57.15;99658.54;125845;1093;22775;-63
2021/07/13 11:06:58;;;;;;;12.78;5.63;;;;;;;27.95;57.05;99652.34;125758;1092;22754;-63
2021/07/13 11:09:40;;;;;;;10.03;5.15;;;;;;;27.99;56.88;99644.79;125854;1093;22815;-63
2021/07/13 11:12:20;;;;;;;11.55;5.35;;;;;;;28.06;56.77;99639.45;125688;1093;26213;-63
2021/07/13 11:14:59;;;;;;;10.55;5.18;;;;;;;28.08;56.36;99643.19;125748;1093;27148;-63
2021/07/13 11:17:32;;;;;;;10.05;4.93;;;;;;;28.11;56.50;99644.08;125689;1092;22902;-62
2021/07/13 11:20:16;;;;;;;9.98;4.60;;;;;;;28.15;56.95;99647.22;126020;1093;22976;-62
2021/07/13 11:22:53;;;;;;;10.85;4.68;;;;;;;28.21;56.63;99644.75;126104;1093;25802;-62
2021/07/13 11:25:31;;;;;;;11.33;4.80;;;;;;;28.26;56.53;99640.80;125911;1093;22748;-62
2021/07/13 11:28:08;;;;;;;9.35;4.50;;;;;;;28.29;55.67;99636.67;125877;1092;22835;-63
2021/07/13 11:30:39;;;;;;;9.77;4.97;;;;;;;28.31;55.70;99631.06;126050;1093;26009;-62
2021/07/13 11:33:12;;;;;;;10.20;5.43;;;;;;;28.31;55.48;99625.31;126046;1093;22808;-63
2021/07/13 11:35:54;;;;;;;10.38;5.00;;;;;;;28.36;55.68;99624.98;126040;1093;22918;-63
2021/07/13 11:38:35;;;;;;;8.73;4.15;;;;;;;28.43;55.69;99620.39;126001;1092;23563;-63
2021/07/13 11:41:14;;;;;;;10.33;4.40;;;;;;;28.50;55.39;99619.40;125906;1092;22751;-63
2021/07/13 11:43:50;;;;;;;10.38;4.68;;;;;;;28.54;55.67;99620.41;125946;1093;22780;-63
2021/07/13 11:46:24;;;;;;;9.13;4.47;;;;;;;28.59;54.91;99619.34;125985;1093;23455;-63
2021/07/13 11:49:00;;;;;;;9.30;4.83;;;;;;;28.61;53.99;99618.72;125983;1093;22762;-63
2021/07/13 11:51:34;;;;;;;11.55;5.48;;;;;;;28.61;53.81;99621.59;126311;1093;23204;-63
2021/07/13 11:54:07;;;;;;;14.05;5.83;;;;;;;28.61;54.04;99616.60;125964;1093;22783;-63
2021/07/13 11:56:40;;;;;;;10.55;6.00;;;;;;;28.67;54.70;99611.24;126020;1093;27147;-64
2021/07/13 11:59:14;;;;;;;9.50;5.55;;;;;;;28.75;54.91;99603.14;126031;1093;22783;-64
2021/07/13 12:01:50;;;;;;;11.58;5.75;;;;;;;28.83;54.05;99605.77;125953;1092;22839;-64
2021/07/13 12:04:22;;;;;;;11.23;5.70;;;;;;;28.86;53.72;99603.77;125902;1092;22778;-64
2021/07/13 12:06:55;;;;;;;11.88;5.68;;;;;;;28.86;53.78;99610.28;125927;1093;25935;-64